createdAt,value
2018-03-04T00:01:36.641Z,1.30
2018-03-04T00:04:39.898Z,1.31
2018-03-04T00:07:43.173Z,1.21
2018-03-04T00:10:46.451Z,1.28
2018-03-04T00:13:49.729Z,1.30
2018-03-04T00:16:53.027Z,1.19
2018-03-04T00:19:57.053Z,1.17
2018-03-04T00:23:00.316Z,1.06
2018-03-04T00:26:04.348Z,1.08
2018-03-04T00:29:07.621Z,1.16
2018-03-04T00:32:11.078Z,1.20
2018-03-04T00:35:14.512Z,1.20
2018-03-04T00:38:17.800Z,1.17
2018-03-04T00:41:21.243Z,1.11
2018-03-04T00:44:24.512Z,1.11
2018-03-04T00:47:27.785Z,1.13
2018-03-04T00:50:31.136Z,1.15
2018-03-04T00:53:34.414Z,1.06
2018-03-04T00:56:38.457Z,1.09
2018-03-04T00:59:41.742Z,1.14
2018-03-04T01:02:45.772Z,1.12
2018-03-04T01:05:49.413Z,1.11
2018-03-04T01:08:52.697Z,1.12
2018-03-04T01:11:55.968Z,1.11
2018-03-04T01:14:59.255Z,1.18
2018-03-04T01:18:02.965Z,1.19
2018-03-04T01:21:06.232Z,1.22
2018-03-04T01:24:09.553Z,1.19
2018-03-04T01:27:12.787Z,1.22
2018-03-04T01:30:16.046Z,1.29
2018-03-04T01:33:19.310Z,1.32
2018-03-04T01:36:22.578Z,1.32
2018-03-04T01:39:26.425Z,1.28
2018-03-04T01:42:30.776Z,1.21
2018-03-04T01:45:34.079Z,1.14
2018-03-04T01:48:38.096Z,1.14
2018-03-04T01:51:54.077Z,1.12
2018-03-04T01:54:58.109Z,1.13
2018-03-04T01:58:01.402Z,1.11
2018-03-04T02:01:04.673Z,1.00
2018-03-04T02:04:08.709Z,1.05
2018-03-04T02:07:12.736Z,1.01
2018-03-04T02:10:16.030Z,0.96
2018-03-04T02:13:19.308Z,0.75
2018-03-04T02:16:23.339Z,0.73
2018-03-04T02:19:26.805Z,0.69
2018-03-04T02:22:30.134Z,0.61
2018-03-04T02:25:33.411Z,0.70
2018-03-04T02:28:37.438Z,0.55
2018-03-04T02:31:41.465Z,0.56
2018-03-04T02:34:44.746Z,0.59
2018-03-04T02:37:48.869Z,0.59
2018-03-04T02:40:52.988Z,0.44
2018-03-04T02:43:56.254Z,0.42
2018-03-04T02:46:59.528Z,0.36
2018-03-04T02:50:03.269Z,0.42
2018-03-04T02:53:06.691Z,0.48
2018-03-04T02:56:09.978Z,0.56
2018-03-04T02:59:14.030Z,0.60
2018-03-04T03:02:17.302Z,0.61
2018-03-04T03:05:20.558Z,0.56
2018-03-04T03:08:23.930Z,0.49
2018-03-04T03:11:27.300Z,0.43
2018-03-04T03:14:30.564Z,0.39
2018-03-04T03:17:33.840Z,0.33
2018-03-04T03:20:37.105Z,0.25
2018-03-04T03:23:40.374Z,0.20
2018-03-04T03:26:44.406Z,0.21
2018-03-04T03:29:47.693Z,0.31
2018-03-04T03:32:51.724Z,0.39
2018-03-04T03:35:54.994Z,0.40
2018-03-04T03:38:59.046Z,0.38
2018-03-04T03:42:02.330Z,0.38
2018-03-04T03:45:05.589Z,0.34
2018-03-04T03:48:09.027Z,0.27
2018-03-04T03:51:12.298Z,0.23
2018-03-04T03:54:16.338Z,0.20
2018-03-04T03:57:19.624Z,0.13
2018-03-04T04:00:23.652Z,0.17
2018-03-04T04:03:26.923Z,0.21
2018-03-04T04:06:30.946Z,0.26
2018-03-04T04:09:34.238Z,0.32
2018-03-04T04:12:38.279Z,0.26
2018-03-04T04:15:41.558Z,0.29
2018-03-04T04:18:45.593Z,0.32
2018-03-04T04:21:49.064Z,0.30
2018-03-04T04:24:53.101Z,0.31
2018-03-04T04:27:56.386Z,0.32
2018-03-04T04:31:00.522Z,0.27
2018-03-04T04:34:03.806Z,0.29
2018-03-04T04:37:07.065Z,0.28
2018-03-04T04:40:10.404Z,0.34
2018-03-04T04:43:13.678Z,0.41
2018-03-04T04:46:17.707Z,0.48
2018-03-04T04:49:21.792Z,0.56
2018-03-04T04:52:25.061Z,0.68
2018-03-04T04:55:28.372Z,0.75
2018-03-04T04:58:31.634Z,0.67
2018-03-04T05:01:34.896Z,0.63
2018-03-04T05:04:38.936Z,0.78
2018-03-04T05:07:42.206Z,0.81
2018-03-04T05:10:45.944Z,0.92
2018-03-04T05:13:49.221Z,0.96
2018-03-04T05:16:53.362Z,0.93
2018-03-04T05:19:56.629Z,0.98
2018-03-04T05:23:01.556Z,0.86
2018-03-04T05:26:05.681Z,1.01
2018-03-04T05:29:09.720Z,0.75
2018-03-04T05:32:12.993Z,0.72
2018-03-04T05:35:17.025Z,0.71
2018-03-04T05:38:20.330Z,0.62
2018-03-04T05:41:23.625Z,0.54
2018-03-04T05:44:26.906Z,0.48
2018-03-04T05:47:30.938Z,0.43
2018-03-04T05:50:34.211Z,0.37
2018-03-04T05:53:37.485Z,0.34
2018-03-04T05:56:40.785Z,0.26
2018-03-04T05:59:44.139Z,0.08
2018-03-04T06:02:47.413Z,0.04
2018-03-04T06:05:50.702Z,0.04
2018-03-04T06:08:54.743Z,0.06
2018-03-04T06:11:58.136Z,0.06
2018-03-04T06:15:01.416Z,0.03
2018-03-04T06:18:05.461Z,0.03
2018-03-04T06:21:08.750Z,0.04
2018-03-04T06:24:12.017Z,0.03
2018-03-04T06:27:15.359Z,0.04
2018-03-04T06:30:18.816Z,0.11
2018-03-04T06:33:22.867Z,0.17
2018-03-04T06:36:26.156Z,0.27
2018-03-04T06:39:29.570Z,0.34
2018-03-04T06:42:32.881Z,0.42
2018-03-04T06:45:36.150Z,0.50
2018-03-04T06:48:39.421Z,0.59
2018-03-04T06:51:42.674Z,0.73
2018-03-04T06:54:45.962Z,0.85
2018-03-04T06:57:49.233Z,1.01
2018-03-04T07:00:52.527Z,1.18
2018-03-04T07:03:56.564Z,1.35
2018-03-04T07:06:59.832Z,1.47
2018-03-04T07:10:04.129Z,1.71
2018-03-04T07:13:08.281Z,1.78
2018-03-04T07:16:12.330Z,2.01
2018-03-04T07:19:15.596Z,2.37
2018-03-04T07:22:18.874Z,2.55
2018-03-04T07:25:22.906Z,2.74
2018-03-04T07:28:26.926Z,2.96
2018-03-04T07:31:30.197Z,3.18
2018-03-04T07:34:33.466Z,3.33
2018-03-04T07:37:36.763Z,3.53
2018-03-04T07:40:40.175Z,3.67
2018-03-04T07:43:43.444Z,3.89
2018-03-04T07:46:46.750Z,4.16
2018-03-04T07:49:50.026Z,3.97
2018-03-04T07:52:53.408Z,4.30
2018-03-04T07:55:56.677Z,4.43
2018-03-04T07:58:59.950Z,4.65
2018-03-04T08:02:04.132Z,4.70
2018-03-04T08:05:07.411Z,4.72
2018-03-04T08:08:11.445Z,4.75
2018-03-04T08:11:14.717Z,4.95
2018-03-04T08:14:18.758Z,4.95
2018-03-04T08:17:22.042Z,5.11
2018-03-04T08:20:25.306Z,5.25
2018-03-04T08:23:29.136Z,5.28
2018-03-04T08:26:50.901Z,4.97
2018-03-04T08:29:54.197Z,4.97
2018-03-04T08:32:57.463Z,5.19
2018-03-04T08:36:01.499Z,5.33
2018-03-04T08:39:04.774Z,5.23
2018-03-04T08:42:08.899Z,5.58
2018-03-04T08:45:13.017Z,5.38
2018-03-04T08:48:16.282Z,5.36
2018-03-04T08:51:20.089Z,5.47
2018-03-04T08:55:05.702Z,5.35
2018-03-04T08:58:09.752Z,5.38
2018-03-04T09:01:13.049Z,5.54
2018-03-04T09:04:16.327Z,5.86
2018-03-04T09:07:19.604Z,6.10
2018-03-04T09:10:22.972Z,6.23
2018-03-04T09:13:26.358Z,6.22
2018-03-04T09:16:29.633Z,6.40
2018-03-04T09:19:32.968Z,6.52
2018-03-04T09:22:36.413Z,6.62
2018-03-04T09:25:39.728Z,6.61
2018-03-04T09:28:43.193Z,6.81
2018-03-04T09:31:46.524Z,6.96
2018-03-04T09:34:50.095Z,7.19
2018-03-04T09:37:53.516Z,7.19
2018-03-04T09:40:57.570Z,6.76
2018-03-04T09:44:00.848Z,6.83
2018-03-04T09:47:04.158Z,6.98
2018-03-04T09:50:07.442Z,7.03
2018-03-04T09:53:10.697Z,7.03
2018-03-04T09:56:14.008Z,7.20
2018-03-04T09:59:18.205Z,7.39
2018-03-04T10:02:21.471Z,7.66
2018-03-04T10:05:24.743Z,7.50
2018-03-04T10:08:28.006Z,7.77
2018-03-04T10:11:31.275Z,7.94
2018-03-04T10:14:34.540Z,8.06
2018-03-04T10:17:37.848Z,7.73
2018-03-04T10:20:41.849Z,7.74
2018-03-04T10:23:45.118Z,8.00
2018-03-04T10:26:49.153Z,8.00
2018-03-04T10:29:52.410Z,8.30
2018-03-04T10:32:55.757Z,8.51
2018-03-04T10:35:59.121Z,8.31
2018-03-04T10:39:02.581Z,8.49
2018-03-04T10:42:05.871Z,8.62
2018-03-04T10:45:09.999Z,8.74
2018-03-04T10:48:13.347Z,8.62
2018-03-04T10:51:17.856Z,8.54
2018-03-04T10:54:21.197Z,8.56
2018-03-04T10:57:24.461Z,8.27
2018-03-04T11:00:27.746Z,8.27
2018-03-04T11:03:31.029Z,8.35
2018-03-04T11:06:39.814Z,8.47
2018-03-04T11:09:48.601Z,8.42
2018-03-04T11:12:52.069Z,8.34
2018-03-04T11:15:56.201Z,8.43
2018-03-04T11:19:00.229Z,8.37
2018-03-04T11:22:03.847Z,8.24
2018-03-04T11:25:07.118Z,8.37
2018-03-04T11:28:11.237Z,8.50
2018-03-04T11:31:14.530Z,8.36
2018-03-04T11:34:17.784Z,8.46
2018-03-04T11:37:21.069Z,8.30
2018-03-04T11:40:24.333Z,8.20
2018-03-04T11:43:27.605Z,8.07
2018-03-04T11:46:30.861Z,8.13
2018-03-04T11:49:34.130Z,8.10
2018-03-04T11:52:38.267Z,8.09
2018-03-04T11:55:41.525Z,8.07
2018-03-04T11:58:44.789Z,8.12
2018-03-04T12:01:48.165Z,8.22
2018-03-04T12:04:51.675Z,8.25
2018-03-04T12:07:54.939Z,8.23
2018-03-04T12:10:58.236Z,8.25
2018-03-04T12:14:01.521Z,8.36
2018-03-04T12:17:04.788Z,8.49
2018-03-04T12:20:08.062Z,8.49
2018-03-04T12:23:11.381Z,8.63
2018-03-04T12:26:14.703Z,8.79
2018-03-04T12:29:17.998Z,8.77
2018-03-04T12:32:21.297Z,8.70
2018-03-04T12:35:24.562Z,8.64
2018-03-04T12:38:27.871Z,8.87
2018-03-04T12:41:31.134Z,8.86
2018-03-04T12:44:35.289Z,8.76
2018-03-04T12:47:38.576Z,8.81
2018-03-04T12:50:41.842Z,8.80
2018-03-04T12:53:45.898Z,8.80
2018-03-04T12:56:49.164Z,8.69
2018-03-04T12:59:53.276Z,8.65
2018-03-04T13:02:57.300Z,8.71
2018-03-04T13:06:01.421Z,8.71
2018-03-04T13:09:05.548Z,8.64
2018-03-04T13:12:08.878Z,8.64
2018-03-04T13:15:12.132Z,8.63
2018-03-04T13:18:16.282Z,8.74
2018-03-04T13:21:19.653Z,8.72
2018-03-04T13:24:23.684Z,8.76
2018-03-04T13:27:26.982Z,8.74
2018-03-04T13:30:30.366Z,8.65
2018-03-04T13:33:33.621Z,8.67
2018-03-04T13:36:36.952Z,8.72
2018-03-04T13:39:40.226Z,8.71
2018-03-04T13:42:43.496Z,8.67
2018-03-04T13:45:46.793Z,8.61
2018-03-04T13:48:50.602Z,8.65
2018-03-04T13:51:53.870Z,8.71
2018-03-04T13:54:57.188Z,8.70
2018-03-04T13:58:00.539Z,8.65
2018-03-04T14:01:03.815Z,8.61
2018-03-04T14:04:07.885Z,8.58
2018-03-04T14:07:11.159Z,8.58
2018-03-04T14:10:14.430Z,8.66
2018-03-04T14:13:18.455Z,8.64
2018-03-04T14:16:21.780Z,8.62
2018-03-04T14:19:25.069Z,8.61
2018-03-04T14:22:29.349Z,8.56
2018-03-04T14:25:33.409Z,8.63
2018-03-04T14:28:36.711Z,8.59
2018-03-04T14:31:39.978Z,8.57
2018-03-04T14:34:44.048Z,8.63
2018-03-04T14:37:47.470Z,8.77
2018-03-04T14:40:51.522Z,8.76
2018-03-04T14:43:55.557Z,8.76
2018-03-04T14:46:59.894Z,8.76
2018-03-04T14:50:03.420Z,8.85
2018-03-04T14:53:07.503Z,8.77
2018-03-04T14:56:10.766Z,8.66
2018-03-04T14:59:14.103Z,8.60
2018-03-04T15:02:17.347Z,8.56
2018-03-04T15:05:20.637Z,8.51
2018-03-04T15:08:23.899Z,8.38
2018-03-04T15:11:27.185Z,8.36
2018-03-04T15:14:30.693Z,8.34
2018-03-04T15:17:33.957Z,8.27
2018-03-04T15:20:37.329Z,8.16
2018-03-04T15:23:41.353Z,8.09
2018-03-04T15:26:44.629Z,8.12
2018-03-04T15:29:48.685Z,8.11
2018-03-04T15:32:56.913Z,8.03
2018-03-04T15:36:00.197Z,8.02
2018-03-04T15:39:03.460Z,7.97
2018-03-04T15:42:07.507Z,7.96
2018-03-04T15:45:11.940Z,7.88
2018-03-04T15:48:15.197Z,7.79
2018-03-04T15:51:18.610Z,7.74
2018-03-04T15:54:22.658Z,7.64
2018-03-04T15:57:25.929Z,7.62
2018-03-04T16:00:31.482Z,7.52
2018-03-04T16:03:34.750Z,7.42
2018-03-04T16:06:38.025Z,7.33
2018-03-04T16:09:41.306Z,7.21
2018-03-04T16:12:44.578Z,7.11
2018-03-04T16:15:48.615Z,7.07
2018-03-04T16:18:51.886Z,7.05
2018-03-04T16:21:56.122Z,6.95
2018-03-04T16:25:01.391Z,6.88
2018-03-04T16:28:04.671Z,6.78
2018-03-04T16:31:08.712Z,6.68
2018-03-04T16:34:11.981Z,6.63
2018-03-04T16:37:16.166Z,6.51
2018-03-04T16:40:19.503Z,6.39
2018-03-04T16:43:22.823Z,6.27
2018-03-04T16:46:26.869Z,6.16
2018-03-04T16:49:31.200Z,6.06
2018-03-04T16:52:34.556Z,6.01
2018-03-04T16:55:37.950Z,5.88
2018-03-04T16:58:42.646Z,5.86
2018-03-04T17:01:46.681Z,5.69
2018-03-04T17:04:49.941Z,5.62
2018-03-04T17:07:53.211Z,5.48
2018-03-04T17:10:56.701Z,5.30
2018-03-04T17:14:00.026Z,5.20
2018-03-04T17:17:03.313Z,5.04
2018-03-04T17:20:06.649Z,4.93
2018-03-04T17:23:10.010Z,4.80
2018-03-04T17:26:13.597Z,4.70
2018-03-04T17:29:17.641Z,4.62
2018-03-04T17:32:20.982Z,4.56
2018-03-04T17:35:24.333Z,4.44
2018-03-04T17:38:27.618Z,4.38
2018-03-04T17:41:32.900Z,4.29
2018-03-04T17:44:36.209Z,4.25
2018-03-04T17:47:39.477Z,4.25
2018-03-04T17:50:42.756Z,4.19
2018-03-04T17:53:46.837Z,4.12
2018-03-04T17:56:50.277Z,4.07
2018-03-04T17:59:53.574Z,4.04
2018-03-04T18:02:56.887Z,3.97
2018-03-04T18:06:00.231Z,3.95
2018-03-04T18:09:03.503Z,3.93
2018-03-04T18:12:06.954Z,3.95
2018-03-04T18:15:10.987Z,3.89
2018-03-04T18:18:14.277Z,3.92
2018-03-04T18:21:18.309Z,3.93
2018-03-04T18:24:21.647Z,3.94
2018-03-04T18:27:24.930Z,3.93
2018-03-04T18:30:28.213Z,3.91
2018-03-04T18:33:32.246Z,3.88
2018-03-04T18:36:35.517Z,3.85
2018-03-04T18:39:38.793Z,3.83
2018-03-04T18:42:42.081Z,3.78
2018-03-04T18:45:45.457Z,3.77
2018-03-04T18:48:49.547Z,3.70
2018-03-04T18:51:52.886Z,3.67
2018-03-04T18:54:56.160Z,3.64
2018-03-04T18:58:00.293Z,3.62
2018-03-04T19:01:04.315Z,3.54
2018-03-04T19:04:08.026Z,3.49
2018-03-04T19:07:12.275Z,3.40
2018-03-04T19:10:15.653Z,3.33
2018-03-04T19:13:19.733Z,3.29
2018-03-04T19:16:23.803Z,3.18
2018-03-04T19:19:27.453Z,3.09
2018-03-04T19:22:30.745Z,3.11
2018-03-04T19:25:34.830Z,3.04
2018-03-04T19:28:38.165Z,3.01
2018-03-04T19:31:41.458Z,3.00
2018-03-04T19:34:44.734Z,2.98
2018-03-04T19:37:48.005Z,2.98
2018-03-04T19:40:51.302Z,2.96
2018-03-04T19:43:54.621Z,2.96
2018-03-04T19:46:57.885Z,2.90
2018-03-04T19:50:01.935Z,2.92
2018-03-04T19:53:06.710Z,2.97
2018-03-04T19:56:10.001Z,2.97
2018-03-04T19:59:13.279Z,2.96
2018-03-04T20:02:16.665Z,2.96
2018-03-04T20:05:20.724Z,2.99
2018-03-04T20:08:24.036Z,2.93
2018-03-04T20:11:27.396Z,2.90
2018-03-04T20:14:31.540Z,2.79
2018-03-04T20:17:36.813Z,2.78
2018-03-04T20:20:41.826Z,2.75
2018-03-04T20:23:45.133Z,2.72
2018-03-04T20:26:50.742Z,2.71
2018-03-04T20:29:54.353Z,2.77
2018-03-04T20:32:57.655Z,2.70
2018-03-04T20:36:00.937Z,2.65
2018-03-04T20:39:04.199Z,2.65
2018-03-04T20:42:07.489Z,2.65
2018-03-04T20:45:10.759Z,2.69
2018-03-04T20:48:14.030Z,2.59
2018-03-04T20:51:18.071Z,2.55
2018-03-04T20:54:21.513Z,2.48
2018-03-04T20:57:24.793Z,2.39
2018-03-04T21:00:28.232Z,2.39
2018-03-04T21:03:31.521Z,2.36
2018-03-04T21:06:34.874Z,2.19
2018-03-04T21:09:38.152Z,2.26
2018-03-04T21:12:42.190Z,2.17
2018-03-04T21:15:45.451Z,2.24
2018-03-04T21:18:49.491Z,2.19
2018-03-04T21:21:52.759Z,2.22
2018-03-04T21:24:56.090Z,2.24
2018-03-04T21:27:59.360Z,2.18
2018-03-04T21:31:02.620Z,2.12
2018-03-04T21:34:05.989Z,2.16
2018-03-04T21:37:09.261Z,2.11
2018-03-04T21:40:13.303Z,2.09
2018-03-04T21:43:16.612Z,2.03
2018-03-04T21:46:19.883Z,2.02
2018-03-04T21:49:23.152Z,2.04
2018-03-04T21:52:26.472Z,1.98
2018-03-04T21:55:29.718Z,1.94
2018-03-04T21:58:33.773Z,1.96
2018-03-04T22:01:37.057Z,1.86
2018-03-04T22:04:40.320Z,1.80
2018-03-04T22:07:44.388Z,1.81
2018-03-04T22:10:47.656Z,1.82
2018-03-04T22:13:50.932Z,1.75
2018-03-04T22:16:54.971Z,1.79
2018-03-04T22:19:58.242Z,1.77
2018-03-04T22:23:02.278Z,1.70
2018-03-04T22:26:05.537Z,1.78
2018-03-04T22:29:09.631Z,1.85
2018-03-04T22:32:12.899Z,1.85
2018-03-04T22:35:16.931Z,1.86
2018-03-04T22:38:20.204Z,1.77
2018-03-04T22:41:24.233Z,1.78
2018-03-04T22:44:27.518Z,1.78
2018-03-04T22:47:31.566Z,1.80
2018-03-04T22:50:34.826Z,1.78
2018-03-04T22:53:40.133Z,1.75
2018-03-04T22:56:43.399Z,1.75
2018-03-04T22:59:46.677Z,1.73
2018-03-04T23:02:50.099Z,1.72
2018-03-04T23:05:53.349Z,1.61
2018-03-04T23:08:56.620Z,1.58
2018-03-04T23:12:00.760Z,1.48
2018-03-04T23:15:04.038Z,1.53
2018-03-04T23:18:08.076Z,1.21
2018-03-04T23:21:11.343Z,1.26
2018-03-04T23:24:14.638Z,0.99
2018-03-04T23:27:17.910Z,1.06
2018-03-04T23:30:21.962Z,1.16
2018-03-04T23:33:25.637Z,1.18
2018-03-04T23:36:29.671Z,1.25
2018-03-04T23:39:32.960Z,1.25
2018-03-04T23:42:36.257Z,1.26
2018-03-04T23:45:39.537Z,1.28
2018-03-04T23:48:43.593Z,1.25
2018-03-04T23:51:46.856Z,1.30
2018-03-04T23:54:50.914Z,1.34
2018-03-04T23:57:54.189Z,1.34
